Time;durP1;ratioP1;P1;durP2;ratioP2;P2;SDS_P1;SDS_P2;PMS_P1;PMS_P2;Temp;Humidity;BMP_temperature;BMP_pressure;BME280_temperature;BME280_humidity;BME280_pressure;Samples;Min_cycle;Max_cycle;Signal;HPM_P1;HPM_P2
2022/04/04 00:02:28;;;;;;;2.50;1.00;;;17.40;50.00;;;;;;10416242;28;20160;-55
2022/04/04 00:07:29;;;;;;;1.27;0.80;;;17.40;50.10;;;;;;10386610;28;20108;-55
2022/04/04 00:12:30;;;;;;;1.63;1.00;;;17.40;50.10;;;;;;10375025;28;20391;-56
2022/04/04 00:17:31;;;;;;;2.17;1.30;;;17.30;50.10;;;;;;10376398;28;20463;-56
2022/04/04 00:22:32;;;;;;;2.10;1.02;;;17.30;50.10;;;;;;10415435;28;20104;-56
2022/04/04 00:27:32;;;;;;;1.50;0.80;;;17.30;50.10;;;;;;10367640;28;20034;-55
2022/04/04 00:32:33;;;;;;;1.35;0.90;;;17.30;50.00;;;;;;10396381;28;20053;-55
2022/04/04 00:37:37;;;;;;;1.85;1.10;;;17.30;49.80;;;;;;10382128;28;20032;-56
2022/04/04 00:42:40;;;;;;;1.25;0.80;;;17.40;49.60;;;;;;10391083;28;20030;-56
2022/04/04 00:47:41;;;;;;;1.73;1.23;;;17.40;49.50;;;;;;10414444;28;20481;-56
2022/04/04 00:52:41;;;;;;;2.28;1.90;;;17.40;49.50;;;;;;10413512;28;20026;-55
2022/04/04 00:57:42;;;;;;;2.20;1.02;;;17.40;49.50;;;;;;10413431;28;20044;-56
2022/04/04 01:02:43;;;;;;;2.08;0.95;;;17.40;49.50;;;;;;10357475;28;20030;-55
2022/04/04 01:07:43;;;;;;;1.42;0.80;;;17.30;49.40;;;;;;10368517;28;20030;-56
2022/04/04 01:12:53;;;;;;;1.48;0.88;;;17.30;49.30;;;;;;10372718;28;20045;-56
2022/04/04 01:17:53;;;;;;;;;;;17.40;49.40;;;;;;10373271;28;20038;-55
2022/04/04 01:22:54;;;;;;;3.58;1.20;;;17.30;49.30;;;;;;10372434;28;19913;-55
2022/04/04 01:27:56;;;;;;;2.13;0.88;;;17.30;49.20;;;;;;10372537;28;20068;-56
2022/04/04 01:32:57;;;;;;;2.03;1.00;;;17.30;49.10;;;;;;10368395;28;20041;-56
2022/04/04 01:37:58;;;;;;;1.40;0.93;;;17.30;49.10;;;;;;10376301;28;20382;-56
2022/04/04 01:42:58;;;;;;;1.90;1.13;;;17.30;49.10;;;;;;10372397;28;20117;-56
2022/04/04 01:47:59;;;;;;;2.88;1.25;;;17.30;49.10;;;;;;10371965;28;20076;-56
2022/04/04 01:53:25;;;;;;;1.23;1.00;;;17.40;48.90;;;;;;10372097;28;20049;-55
2022/04/04 01:58:23;;;;;;;1.25;0.85;;;17.40;48.80;;;;;;10374316;28;20046;-56
2022/04/04 02:03:25;;;;;;;2.17;0.90;;;17.40;48.80;;;;;;10371835;28;20079;-55
2022/04/04 02:08:26;;;;;;;1.55;1.20;;;17.30;49.40;;;;;;10405094;28;20063;-55
2022/04/04 02:13:28;;;;;;;1.55;0.98;;;17.40;48.70;;;;;;10404526;28;20046;-55
2022/04/04 02:18:30;;;;;;;1.63;1.10;;;17.40;48.60;;;;;;10379602;28;20038;-56
2022/04/04 02:23:32;;;;;;;1.80;1.00;;;17.40;48.60;;;;;;10374794;28;20477;-56
2022/04/04 02:28:33;;;;;;;2.17;1.10;;;17.40;48.60;;;;;;10378898;28;20117;-56
2022/04/04 02:33:34;;;;;;;1.10;0.88;;;17.40;48.50;;;;;;10378795;28;20042;-56
2022/04/04 02:38:34;;;;;;;1.48;0.77;;;17.40;48.50;;;;;;10381959;28;20056;-56
2022/04/04 02:43:35;;;;;;;1.17;0.70;;;17.40;48.40;;;;;;10378381;28;20087;-56
2022/04/04 02:48:36;;;;;;;1.52;0.80;;;17.40;48.40;;;;;;10357754;28;20033;-56
2022/04/04 02:53:36;;;;;;;2.15;1.33;;;17.40;48.40;;;;;;10398641;28;20057;-56
2022/04/04 02:58:37;;;;;;;1.40;0.90;;;17.40;48.30;;;;;;10377925;28;20471;-56
2022/04/04 03:03:39;;;;;;;1.55;1.00;;;17.40;48.10;;;;;;10377697;28;20109;-56
2022/04/04 03:08:41;;;;;;;1.73;1.20;;;17.40;48.20;;;;;;10382952;28;20034;-56
2022/04/04 03:13:42;;;;;;;1.52;1.27;;;17.40;48.10;;;;;;10418118;28;20394;-56
2022/04/04 03:18:43;;;;;;;1.48;0.95;;;17.40;48.10;;;;;;10385816;28;20029;-56
2022/04/04 03:23:43;;;;;;;4.15;1.33;;;17.40;48.00;;;;;;10417727;28;20053;-56
2022/04/04 03:28:45;;;;;;;1.67;1.00;;;17.40;48.10;;;;;;10403460;28;20132;-56
2022/04/04 03:33:46;;;;;;;2.45;1.20;;;17.40;48.00;;;;;;10378325;28;20041;-56
2022/04/04 03:38:47;;;;;;;1.75;0.90;;;17.40;47.90;;;;;;10377471;28;20148;-56
2022/04/04 03:43:48;;;;;;;2.58;1.10;;;17.40;47.80;;;;;;10376225;28;20030;-56
2022/04/04 03:48:48;;;;;;;2.33;1.15;;;17.40;47.80;;;;;;10378490;28;20076;-56
2022/04/04 03:53:49;;;;;;;1.85;1.00;;;17.40;47.80;;;;;;10375453;28;20061;-55
2022/04/04 03:58:52;;;;;;;2.50;1.33;;;17.40;47.80;;;;;;10375640;28;20470;-56
2022/04/04 04:03:53;;;;;;;1.95;1.30;;;17.40;47.70;;;;;;10398528;28;20029;-56
2022/04/04 04:08:54;;;;;;;1.88;0.77;;;17.40;47.70;;;;;;10382528;28;20029;-56
2022/04/04 04:13:56;;;;;;;3.00;0.90;;;17.40;47.60;;;;;;10406861;28;20041;-56
2022/04/04 04:18:57;;;;;;;2.45;1.10;;;17.40;47.70;;;;;;10374949;28;20042;-56
2022/04/04 04:23:57;;;;;;;2.83;1.30;;;17.40;47.60;;;;;;10374554;28;20538;-55
2022/04/04 04:28:58;;;;;;;1.88;1.50;;;17.40;47.60;;;;;;10374209;28;20447;-56
2022/04/04 04:34:00;;;;;;;1.58;1.30;;;17.40;47.50;;;;;;10376317;28;20052;-56
2022/04/04 04:39:01;;;;;;;3.28;1.52;;;17.40;47.50;;;;;;10373808;28;20511;-56
2022/04/04 04:44:03;;;;;;;1.73;1.05;;;17.40;47.60;;;;;;10373760;28;20122;-56
2022/04/04 04:49:04;;;;;;;2.13;1.00;;;17.40;47.50;;;;;;10383599;28;20084;-56
2022/04/04 04:54:04;;;;;;;5.35;1.40;;;17.40;47.40;;;;;;10387691;28;20108;-54
2022/04/04 04:59:05;;;;;;;7.47;1.52;;;17.40;48.00;;;;;;10402275;28;20091;-54
2022/04/04 05:04:06;;;;;;;7.65;1.52;;;17.40;48.50;;;;;;10366503;28;20033;-49
2022/04/04 05:09:06;;;;;;;6.53;1.83;;;17.50;49.30;;;;;;10386743;28;20103;-52
2022/04/04 05:14:07;;;;;;;8.57;2.10;;;17.50;49.90;;;;;;10367947;28;20040;-51
2022/04/04 05:19:08;;;;;;;10.25;2.10;;;17.50;49.60;;;;;;10407668;28;20102;-54
2022/04/04 05:24:09;;;;;;;8.55;1.90;;;17.40;50.80;;;;;;10411924;28;20441;-55
2022/04/04 05:29:09;;;;;;;8.95;2.28;;;17.30;50.80;;;;;;10390496;28;20606;-52
2022/04/04 05:34:10;;;;;;;15.77;2.40;;;17.30;50.90;;;;;;10376456;28;20033;-49
2022/04/04 05:39:11;;;;;;;12.43;3.00;;;17.30;50.80;;;;;;10370470;28;20243;-53
2022/04/04 05:44:12;;;;;;;27.95;3.53;;;17.30;50.70;;;;;;10388065;28;20052;-55
2022/04/04 05:49:12;;;;;;;13.15;2.95;;;17.30;50.90;;;;;;10391979;28;20041;-54
2022/04/04 05:54:14;;;;;;;15.32;3.05;;;17.30;51.60;;;;;;10388705;28;20105;-55
2022/04/04 05:59:15;;;;;;;12.48;3.38;;;17.30;51.70;;;;;;10388378;28;20160;-49
2022/04/04 06:04:15;;;;;;;15.50;2.85;;;17.20;52.10;;;;;;10398388;28;20532;-54
2022/04/04 06:09:16;;;;;;;18.38;3.40;;;17.10;52.00;;;;;;10375834;28;20402;-53
2022/04/04 06:14:17;;;;;;;18.55;2.75;;;17.10;51.90;;;;;;10386730;28;20057;-54
2022/04/04 06:19:17;;;;;;;10.18;2.13;;;17.10;51.70;;;;;;10388413;28;20054;-53
2022/04/04 06:24:18;;;;;;;9.82;2.75;;;17.10;51.60;;;;;;10375406;28;20574;-53
2022/04/04 06:29:19;;;;;;;10.43;2.40;;;17.00;51.80;;;;;;10375587;28;20034;-53
2022/04/04 06:34:21;;;;;;;13.15;3.10;;;17.10;52.00;;;;;;10381744;28;20076;-52
2022/04/04 06:39:21;;;;;;;10.23;2.20;;;17.10;52.70;;;;;;10378085;28;20116;-54
2022/04/04 06:44:23;;;;;;;10.40;2.38;;;17.10;53.10;;;;;;10377936;28;20156;-54
2022/04/04 06:49:24;;;;;;;15.65;2.33;;;17.00;53.70;;;;;;10377936;28;20049;-56
2022/04/04 06:54:27;;;;;;;10.15;2.30;;;17.10;52.90;;;;;;10376368;28;20131;-55
2022/04/04 06:59:29;;;;;;;24.73;3.05;;;17.10;53.40;;;;;;10372843;28;20526;-53
2022/04/04 07:04:29;;;;;;;9.55;1.95;;;17.10;53.20;;;;;;10379300;28;20127;-55
2022/04/04 07:09:30;;;;;;;7.55;2.08;;;17.10;53.90;;;;;;10378735;28;20185;-48
2022/04/04 07:14:31;;;;;;;12.02;2.65;;;17.10;54.00;;;;;;10376823;28;20025;-50
2022/04/04 07:19:33;;;;;;;6.75;2.10;;;17.00;54.30;;;;;;10376458;28;20401;-48
2022/04/04 07:24:33;;;;;;;6.40;1.85;;;16.90;54.90;;;;;;10403700;28;20029;-55
2022/04/04 07:29:34;;;;;;;10.07;1.98;;;16.90;54.80;;;;;;10387108;28;20121;-56
2022/04/04 07:34:37;;;;;;;6.10;2.25;;;16.90;54.00;;;;;;10380234;28;20478;-55
2022/04/04 07:39:39;;;;;;;8.25;1.95;;;16.80;53.90;;;;;;10386290;28;20469;-52
2022/04/04 07:44:41;;;;;;;5.53;1.77;;;16.80;54.30;;;;;;10382333;28;20112;-53
2022/04/04 07:49:42;;;;;;;5.82;2.33;;;16.90;54.10;;;;;;10375303;28;20041;-54
2022/04/04 07:54:43;;;;;;;9.82;1.90;;;16.90;53.70;;;;;;10371387;28;20462;-55
2022/04/04 07:59:43;;;;;;;12.77;3.00;;;16.90;53.50;;;;;;10381156;28;20041;-54
2022/04/04 08:04:45;;;;;;;6.32;1.70;;;16.80;53.50;;;;;;10396120;28;20064;-54
2022/04/04 08:09:47;;;;;;;5.30;2.17;;;16.80;53.40;;;;;;10365289;28;20077;-55
2022/04/04 08:14:49;;;;;;;6.22;2.65;;;16.90;53.20;;;;;;10386639;28;20108;-55
2022/04/04 08:19:50;;;;;;;3.75;1.40;;;16.90;53.20;;;;;;10387525;28;20073;-55
2022/04/04 08:24:51;;;;;;;11.50;1.73;;;16.90;53.20;;;;;;10381268;28;20116;-55
2022/04/04 08:29:52;;;;;;;8.07;1.45;;;16.80;53.20;;;;;;10400465;28;20117;-55
2022/04/04 08:34:52;;;;;;;5.53;1.10;;;16.90;53.10;;;;;;10403246;28;20053;-55
2022/04/04 08:39:53;;;;;;;7.38;2.30;;;16.80;53.10;;;;;;10381036;28;20061;-54
2022/04/04 08:44:57;;;;;;;3.35;1.35;;;16.80;53.00;;;;;;10414013;28;20537;-54
2022/04/04 08:49:59;;;;;;;3.40;1.45;;;16.90;52.90;;;;;;10413495;28;20038;-55
2022/04/04 08:54:59;;;;;;;3.47;1.10;;;16.90;52.80;;;;;;10369783;28;20025;-54
2022/04/04 09:00:00;;;;;;;3.15;0.90;;;16.90;52.80;;;;;;10360922;28;20084;-56
2022/04/04 09:05:05;;;;;;;1.95;1.13;;;16.90;52.60;;;;;;10374309;28;20054;-54
2022/04/04 09:10:13;;;;;;;3.95;1.20;;;17.00;52.70;;;;;;10408969;28;20033;-54
2022/04/04 09:15:13;;;;;;;3.35;1.30;;;17.00;52.90;;;;;;10400094;28;20030;-54
2022/04/04 09:20:16;;;;;;;5.32;1.45;;;17.10;52.90;;;;;;10389308;28;20120;-54
2022/04/04 09:25:31;;;;;;;4.93;1.13;;;17.10;53.00;;;;;;10370731;28;20041;-54
2022/04/04 09:30:32;;;;;;;6.18;1.30;;;17.00;53.30;;;;;;10371997;28;20034;-55
2022/04/04 09:35:45;;;;;;;5.15;1.40;;;17.00;53.50;;;;;;10383791;28;20033;-54
2022/04/04 09:40:46;;;;;;;8.15;1.20;;;16.90;53.60;;;;;;10388643;28;20038;-53
2022/04/04 09:45:47;;;;;;;4.90;1.25;;;17.00;53.60;;;;;;10370690;28;20116;-53
2022/04/04 09:50:50;;;;;;;4.25;1.40;;;17.00;53.60;;;;;;10384406;28;20092;-51
2022/04/04 09:56:00;;;;;;;4.32;1.42;;;17.00;53.50;;;;;;10376002;28;20040;-50
2022/04/04 10:01:01;;;;;;;4.47;1.58;;;17.00;53.60;;;;;;10381379;28;20040;-51
2022/04/04 10:06:06;;;;;;;2.50;1.10;;;16.90;53.70;;;;;;10381073;28;20485;-51
2022/04/04 10:11:10;;;;;;;3.33;1.10;;;16.80;54.30;;;;;;10399610;28;20068;-53
2022/04/04 10:16:12;;;;;;;2.65;1.30;;;16.90;53.90;;;;;;10374699;28;20030;-52
2022/04/04 10:21:12;;;;;;;3.17;1.00;;;16.80;53.70;;;;;;10367101;28;20091;-51
2022/04/04 10:26:15;;;;;;;3.22;1.20;;;16.90;53.90;;;;;;10364593;28;20036;-54
2022/04/04 10:31:23;;;;;;;4.28;1.10;;;16.90;54.40;;;;;;10380755;28;20064;-55
2022/04/04 10:36:25;;;;;;;2.25;0.80;;;16.90;54.50;;;;;;10395850;28;20033;-54
2022/04/04 10:41:29;;;;;;;4.07;1.10;;;16.90;54.70;;;;;;10386456;28;20034;-52
2022/04/04 10:46:29;;;;;;;2.53;1.52;;;16.90;54.10;;;;;;10401611;28;20065;-54
2022/04/04 10:51:36;;;;;;;2.67;1.20;;;16.90;54.20;;;;;;10392880;28;20042;-51
2022/04/04 10:56:44;;;;;;;3.20;1.20;;;16.90;54.10;;;;;;10395558;28;20022;-46
2022/04/04 11:01:49;;;;;;;8.82;1.25;;;16.90;54.10;;;;;;10412939;28;20105;-54
2022/04/04 11:12:28;;;;;;;11.90;2.05;;;16.90;55.30;;;;;;10377795;28;20554;-50
2022/04/04 11:17:38;;;;;;;3.58;1.45;;;16.90;55.30;;;;;;10377429;28;20034;-52
2022/04/04 11:22:51;;;;;;;3.80;0.95;;;16.90;54.90;;;;;;10394298;28;20114;-53
2022/04/04 11:27:52;;;;;;;3.78;1.23;;;16.90;54.50;;;;;;10391633;28;20473;-51
2022/04/04 11:32:57;;;;;;;3.30;1.02;;;16.90;54.60;;;;;;10391643;28;20097;-52
2022/04/04 11:38:03;;;;;;;3.28;1.63;;;16.90;54.30;;;;;;10397018;28;20064;-51
2022/04/04 11:43:12;;;;;;;1.58;0.80;;;16.90;54.40;;;;;;10389773;28;20033;-53
2022/04/04 11:48:27;;;;;;;3.40;1.35;;;16.90;54.30;;;;;;10390747;28;20473;-51
2022/04/04 11:53:34;;;;;;;3.17;1.20;;;16.90;54.40;;;;;;10389648;28;20033;-52
2022/04/04 11:58:54;;;;;;;1.85;1.13;;;16.90;54.40;;;;;;10416228;28;20482;-53
2022/04/04 12:03:55;;;;;;;2.30;0.80;;;16.90;54.20;;;;;;10409808;28;20036;-53
2022/04/04 12:09:00;;;;;;;3.25;1.08;;;17.00;53.80;;;;;;10361505;28;20304;-54
2022/04/04 12:14:01;;;;;;;2.10;0.93;;;17.00;53.60;;;;;;10374555;28;20040;-54
2022/04/04 12:19:05;;;;;;;5.28;1.80;;;17.00;53.90;;;;;;10374468;28;20462;-54
2022/04/04 12:29:26;;;;;;;8.15;1.40;;;17.00;55.90;;;;;;10384273;28;20034;-53
2022/04/04 12:34:27;;;;;;;7.75;1.08;;;17.10;56.10;;;;;;10376816;28;20022;-54
2022/04/04 12:39:27;;;;;;;12.48;2.47;;;17.10;55.80;;;;;;10369516;28;20058;-54
2022/04/04 12:44:28;;;;;;;9.00;1.65;;;17.10;55.90;;;;;;10373397;28;20109;-55
2022/04/04 12:49:30;;;;;;;8.15;1.55;;;17.00;56.60;;;;;;10371977;28;20022;-55
2022/04/04 12:54:40;;;;;;;10.18;1.67;;;17.00;55.90;;;;;;10372853;28;20382;-54
2022/04/04 12:59:57;;;;;;;7.55;1.45;;;17.00;55.60;;;;;;10369348;28;20036;-53
2022/04/04 13:05:16;;;;;;;6.57;1.38;;;17.00;55.30;;;;;;10382937;28;20030;-53
2022/04/04 13:10:17;;;;;;;4.67;1.00;;;17.00;55.20;;;;;;10412944;28;20099;-53
2022/04/04 13:15:38;;;;;;;10.68;1.83;;;17.00;55.10;;;;;;10413349;28;20031;-54
2022/04/04 13:20:39;;;;;;;3.53;1.05;;;17.00;54.80;;;;;;10412963;28;20482;-51
2022/04/04 13:25:40;;;;;;;4.43;1.30;;;17.00;54.80;;;;;;10368748;28;20033;-52
2022/04/04 13:30:40;;;;;;;6.40;1.58;;;17.00;55.00;;;;;;10368233;28;20022;-52
2022/04/04 13:35:41;;;;;;;3.97;1.00;;;16.90;54.90;;;;;;10395594;28;20108;-53
2022/04/04 13:40:42;;;;;;;4.43;1.10;;;17.00;54.70;;;;;;10367294;28;20132;-53
2022/04/04 13:45:42;;;;;;;4.18;1.30;;;17.00;54.60;;;;;;10371673;28;20061;-52
2022/04/04 13:50:43;;;;;;;2.50;1.20;;;17.00;54.60;;;;;;10371194;28;20078;-53
2022/04/04 13:55:44;;;;;;;3.00;0.98;;;17.00;54.50;;;;;;10367247;28;20057;-52
2022/04/04 14:00:45;;;;;;;2.83;1.10;;;16.90;54.60;;;;;;10366803;28;20100;-51
2022/04/04 14:05:46;;;;;;;3.63;0.90;;;17.00;54.50;;;;;;10383014;28;20355;-52
2022/04/04 14:10:46;;;;;;;6.18;1.33;;;16.90;54.60;;;;;;10366782;28;20096;-55
2022/04/04 14:15:49;;;;;;;8.77;2.60;;;16.90;55.20;;;;;;10386529;28;20126;-50
2022/04/04 14:20:50;;;;;;;20.75;3.75;;;17.00;55.40;;;;;;10381376;28;20461;-53
2022/04/04 14:25:51;;;;;;;12.48;2.05;;;17.00;55.40;;;;;;10361900;28;20037;-54
2022/04/04 14:30:55;;;;;;;15.50;2.45;;;17.00;55.40;;;;;;10371565;28;20041;-54
2022/04/04 14:35:59;;;;;;;11.45;2.17;;;17.00;55.80;;;;;;10381986;28;20029;-55
2022/04/04 14:41:03;;;;;;;16.35;3.30;;;17.00;55.80;;;;;;10378628;28;20079;-53
2022/04/04 14:46:03;;;;;;;12.10;2.25;;;17.00;56.00;;;;;;10374212;28;20026;-52
2022/04/04 14:51:09;;;;;;;19.50;3.40;;;17.00;56.20;;;;;;10378114;28;20116;-54
2022/04/04 14:56:11;;;;;;;20.45;3.45;;;17.00;56.40;;;;;;10378261;28;20521;-51
2022/04/04 15:01:14;;;;;;;16.55;2.88;;;16.90;56.90;;;;;;10377891;28;20038;-53
2022/04/04 15:06:14;;;;;;;13.00;2.78;;;16.90;57.00;;;;;;10389238;28;20038;-52
2022/04/04 15:11:15;;;;;;;22.40;4.95;;;16.90;57.00;;;;;;10418173;28;20049;-49
2022/04/04 15:16:16;;;;;;;16.95;2.60;;;16.80;57.50;;;;;;10374787;28;20120;-46
2022/04/04 15:21:18;;;;;;;17.58;3.38;;;16.90;57.40;;;;;;10392117;28;20108;-51
2022/04/04 15:26:18;;;;;;;16.17;3.08;;;16.90;57.30;;;;;;10381551;28;20021;-51
2022/04/04 15:31:20;;;;;;;14.13;3.00;;;16.90;57.30;;;;;;10380002;28;20405;-50
2022/04/04 15:36:25;;;;;;;17.35;2.97;;;16.90;57.60;;;;;;10393120;28;20034;-52
2022/04/04 15:41:27;;;;;;;14.88;2.78;;;16.80;58.10;;;;;;10376108;28;20036;-50
2022/04/04 15:46:27;;;;;;;34.40;3.53;;;16.80;58.10;;;;;;10373997;28;20574;-48
2022/04/04 15:51:28;;;;;;;12.70;3.38;;;16.80;58.80;;;;;;10371751;28;20033;-47
2022/04/04 15:56:29;;;;;;;19.90;3.90;;;16.80;58.00;;;;;;10384091;28;20017;-48
2022/04/04 16:01:30;;;;;;;17.42;3.78;;;16.90;58.10;;;;;;10392065;28;20041;-52
2022/04/04 16:06:30;;;;;;;28.35;6.70;;;16.90;58.30;;;;;;10387732;28;20030;-47
2022/04/04 16:11:33;;;;;;;14.88;4.03;;;17.10;60.00;;;;;;10359610;28;20047;-52
2022/04/04 16:16:34;;;;;;;18.17;4.47;;;17.10;58.80;;;;;;10368159;28;20033;-52
2022/04/04 16:21:34;;;;;;;11.15;3.80;;;17.20;58.30;;;;;;10391386;28;20032;-52
2022/04/04 16:26:35;;;;;;;30.13;13.50;;;17.20;57.70;;;;;;10389878;28;20108;-52
2022/04/04 16:31:36;;;;;;;20.30;8.57;;;17.30;59.40;;;;;;10384766;28;20041;-51
2022/04/04 16:36:38;;;;;;;29.33;9.45;;;17.50;61.10;;;;;;10389014;28;20215;-49
2022/04/04 16:41:38;;;;;;;21.50;8.18;;;17.50;61.30;;;;;;10380336;28;20513;-50
2022/04/04 16:46:39;;;;;;;24.13;7.93;;;17.40;61.40;;;;;;10373409;28;20048;-51
2022/04/04 16:51:40;;;;;;;22.73;8.52;;;17.30;61.40;;;;;;10364399;28;20038;-50
2022/04/04 16:56:41;;;;;;;16.45;6.82;;;17.30;61.40;;;;;;10373107;28;20450;-47
2022/04/04 17:01:41;;;;;;;17.65;7.72;;;17.20;61.40;;;;;;10373075;28;20117;-48
2022/04/04 17:06:42;;;;;;;23.33;6.47;;;17.10;61.10;;;;;;10392577;28;20029;-48
2022/04/04 17:11:43;;;;;;;23.08;6.03;;;17.00;61.10;;;;;;10364996;28;20109;-50
2022/04/04 17:16:44;;;;;;;23.48;7.05;;;16.90;60.90;;;;;;10405987;28;20470;-48
2022/04/04 17:21:44;;;;;;;19.98;6.07;;;16.80;60.80;;;;;;10382295;28;20091;-49
2022/04/04 17:26:46;;;;;;;29.35;6.93;;;16.80;60.80;;;;;;10411858;28;20525;-48
2022/04/04 17:31:47;;;;;;;14.68;4.82;;;16.70;60.80;;;;;;10379524;28;20084;-51
2022/04/04 17:36:48;;;;;;;13.70;6.07;;;16.80;60.90;;;;;;10393739;28;20101;-49
2022/04/04 17:41:49;;;;;;;12.48;4.32;;;16.70;60.80;;;;;;10387960;28;20026;-47
2022/04/04 17:46:50;;;;;;;11.82;4.50;;;16.70;60.70;;;;;;10388040;28;20044;-52
2022/04/04 17:51:50;;;;;;;18.25;5.53;;;16.60;60.60;;;;;;10387697;28;20137;-52
2022/04/04 17:56:51;;;;;;;14.07;3.55;;;16.70;60.50;;;;;;10387311;28;20080;-52
2022/04/04 18:01:53;;;;;;;13.30;4.25;;;16.80;60.10;;;;;;10388241;28;20033;-52
2022/04/04 18:06:55;;;;;;;14.25;4.20;;;16.80;59.80;;;;;;10384673;28;20040;-51
2022/04/04 18:11:56;;;;;;;9.18;3.40;;;16.80;59.60;;;;;;10379564;28;20458;-51
2022/04/04 18:17:00;;;;;;;14.43;3.60;;;16.80;59.60;;;;;;10411371;28;20033;-51
2022/04/04 18:22:01;;;;;;;7.70;2.95;;;16.80;59.40;;;;;;10411522;28;20049;-52
2022/04/04 18:27:02;;;;;;;9.30;3.10;;;16.80;59.30;;;;;;10409750;28;20033;-53
2022/04/04 18:32:04;;;;;;;10.15;2.80;;;16.90;59.20;;;;;;10376021;28;20037;-53
2022/04/04 18:37:05;;;;;;;8.13;2.88;;;17.00;58.90;;;;;;10388182;28;20473;-52
2022/04/04 18:42:06;;;;;;;9.75;2.90;;;16.90;58.80;;;;;;10363732;28;20025;-52
2022/04/04 18:47:07;;;;;;;8.15;3.35;;;17.00;58.80;;;;;;10379210;28;20161;-51
2022/04/04 18:52:11;;;;;;;7.53;2.75;;;17.00;58.70;;;;;;10369260;28;20136;-53
2022/04/04 18:57:13;;;;;;;10.15;2.42;;;17.00;58.80;;;;;;10394098;28;20100;-54
2022/04/04 19:02:14;;;;;;;7.40;2.70;;;16.90;59.00;;;;;;10386143;28;20727;-52
2022/04/04 19:07:15;;;;;;;9.13;2.50;;;16.90;59.10;;;;;;10380379;28;20056;-54
2022/04/04 19:12:15;;;;;;;7.32;2.80;;;16.90;58.90;;;;;;10397435;28;20080;-53
2022/04/04 19:17:17;;;;;;;6.40;2.25;;;16.90;58.90;;;;;;10384614;28;20717;-52
2022/04/04 19:22:18;;;;;;;5.88;2.40;;;16.90;59.00;;;;;;10397217;28;20029;-53
2022/04/04 19:27:19;;;;;;;4.60;1.90;;;16.90;59.00;;;;;;10391812;28;20057;-53
2022/04/04 19:32:20;;;;;;;6.75;2.50;;;16.90;58.70;;;;;;10383521;28;20450;-55
2022/04/04 19:37:21;;;;;;;7.20;2.13;;;17.00;58.80;;;;;;10393055;28;20037;-53
2022/04/04 19:42:21;;;;;;;9.38;3.20;;;17.00;58.70;;;;;;10368495;28;20406;-51
2022/04/04 19:47:23;;;;;;;4.68;1.85;;;17.10;58.80;;;;;;10408658;28;20026;-53
2022/04/04 19:52:23;;;;;;;4.47;2.42;;;17.00;59.00;;;;;;10376163;28;20037;-53
2022/04/04 19:57:24;;;;;;;4.25;1.73;;;16.90;59.10;;;;;;10375719;28;20030;-53
2022/04/04 20:02:25;;;;;;;4.85;2.45;;;16.90;59.00;;;;;;10375187;28;20026;-52
2022/04/04 20:07:26;;;;;;;6.10;1.55;;;17.00;59.00;;;;;;10371570;28;20045;-53
2022/04/04 20:12:27;;;;;;;5.50;1.90;;;16.90;58.90;;;;;;10375035;28;20166;-53
2022/04/04 20:17:28;;;;;;;5.90;1.77;;;16.90;58.80;;;;;;10389413;28;20029;-51
2022/04/04 20:22:28;;;;;;;5.20;2.00;;;17.00;58.40;;;;;;10390521;28;20401;-52
2022/04/04 20:27:29;;;;;;;5.35;1.90;;;17.10;58.30;;;;;;10374784;28;20485;-53
2022/04/04 20:32:30;;;;;;;3.15;1.40;;;17.10;58.20;;;;;;10391092;28;20481;-54
2022/04/04 20:37:30;;;;;;;4.53;1.67;;;17.20;57.90;;;;;;10378620;28;20123;-54
2022/04/04 20:42:34;;;;;;;3.88;1.45;;;17.20;57.80;;;;;;10369995;28;20057;-53
2022/04/04 20:47:35;;;;;;;4.22;1.30;;;17.10;57.80;;;;;;10398186;28;20037;-54
2022/04/04 20:52:38;;;;;;;3.67;1.50;;;17.00;58.00;;;;;;10414647;28;20025;-54
2022/04/04 20:57:39;;;;;;;3.22;1.35;;;17.10;57.90;;;;;;10413378;28;20037;-54
2022/04/04 21:02:40;;;;;;;2.75;1.10;;;17.10;57.90;;;;;;10413510;28;20120;-54
2022/04/04 21:07:40;;;;;;;3.50;1.52;;;17.00;57.90;;;;;;10401355;28;20488;-54
2022/04/04 21:12:41;;;;;;;3.63;1.42;;;17.10;57.70;;;;;;10412913;28;20091;-53
2022/04/04 21:17:42;;;;;;;3.17;1.95;;;17.10;57.70;;;;;;10413212;28;20639;-53
2022/04/04 21:22:42;;;;;;;5.07;1.67;;;17.10;57.70;;;;;;10406646;28;20026;-53
2022/04/04 21:27:43;;;;;;;4.25;1.45;;;17.10;57.50;;;;;;10372698;28;20113;-54
2022/04/04 21:32:44;;;;;;;4.00;1.80;;;17.10;57.60;;;;;;10372455;28;20053;-54
2022/04/04 21:37:44;;;;;;;5.28;1.85;;;17.10;57.50;;;;;;10391101;28;20108;-54
2022/04/04 21:42:46;;;;;;;3.80;1.60;;;17.10;57.40;;;;;;10367857;28;20040;-53
2022/04/04 21:47:46;;;;;;;3.47;1.70;;;17.10;57.50;;;;;;10367075;28;20513;-53
2022/04/04 21:52:49;;;;;;;1.83;1.00;;;17.10;57.30;;;;;;10394201;28;20108;-53
2022/04/04 21:57:50;;;;;;;3.33;1.13;;;17.10;57.30;;;;;;10412163;28;20045;-54
2022/04/04 22:02:52;;;;;;;3.13;1.40;;;17.10;57.30;;;;;;10381839;28;20026;-53
2022/04/04 22:07:55;;;;;;;2.42;0.95;;;17.10;57.20;;;;;;10402507;28;20088;-53
2022/04/04 22:12:58;;;;;;;2.28;1.00;;;17.10;57.10;;;;;;10411554;28;20493;-52
2022/04/04 22:17:58;;;;;;;2.63;0.93;;;17.10;57.30;;;;;;10383714;28;20040;-53
2022/04/04 22:22:59;;;;;;;3.03;1.30;;;17.10;57.00;;;;;;10371944;28;20113;-53
2022/04/04 22:28:00;;;;;;;3.70;1.38;;;17.10;57.10;;;;;;10379257;28;20045;-51
2022/04/04 22:33:01;;;;;;;3.22;1.33;;;17.10;57.00;;;;;;10379061;28;20068;-53
2022/04/04 22:38:01;;;;;;;2.25;1.10;;;17.10;56.90;;;;;;10384638;28;20038;-54
2022/04/04 22:43:02;;;;;;;2.45;1.48;;;17.10;57.00;;;;;;10419666;28;20113;-51
2022/04/04 22:48:03;;;;;;;2.92;1.00;;;17.10;56.90;;;;;;10418291;28;20417;-52
2022/04/04 22:53:04;;;;;;;1.75;1.13;;;17.10;56.80;;;;;;10388428;28;20041;-53
2022/04/04 22:58:05;;;;;;;1.85;0.80;;;17.10;56.90;;;;;;10389442;28;20030;-54
2022/04/04 23:03:06;;;;;;;3.33;1.10;;;17.10;56.80;;;;;;10377878;28;20116;-52
2022/04/04 23:08:07;;;;;;;1.38;0.93;;;17.20;56.80;;;;;;10377806;28;20463;-53
2022/04/04 23:13:08;;;;;;;1.58;0.90;;;17.10;56.80;;;;;;10377642;28;20044;-52
2022/04/04 23:18:09;;;;;;;1.58;0.82;;;17.20;56.70;;;;;;10374933;28;20040;-53
2022/04/04 23:23:09;;;;;;;1.40;0.85;;;17.10;56.80;;;;;;10377111;28;20103;-54
2022/04/04 23:28:10;;;;;;;1.55;0.80;;;17.10;56.80;;;;;;10399390;28;20365;-53
2022/04/04 23:33:10;;;;;;;1.90;1.00;;;17.20;56.70;;;;;;10376608;28;20149;-53
2022/04/04 23:38:11;;;;;;;1.77;0.73;;;17.10;56.80;;;;;;10406013;28;20065;-54
2022/04/04 23:43:12;;;;;;;1.50;0.70;;;17.10;56.80;;;;;;10408858;28;20028;-51
2022/04/04 23:48:13;;;;;;;1.25;0.80;;;17.20;56.70;;;;;;10416171;28;20033;-54
2022/04/04 23:53:13;;;;;;;1.60;1.00;;;17.10;56.70;;;;;;10417013;28;20029;-53
2022/04/04 23:58:14;;;;;;;2.38;0.82;;;17.10;56.60;;;;;;10416239;28;20039;-51
